Time;durP1;ratioP1;P1;durP2;ratioP2;P2;SDS_P1;SDS_P2;PMS_P1;PMS_P2;Temp;Humidity;BMP_temperature;BMP_pressure;BME280_temperature;BME280_humidity;BME280_pressure;Samples;Min_cycle;Max_cycle;Signal;HPM_P1;HPM_P2
2023/12/21 00:02:17;;;;;;;27.90;16.13;;;;;;;-142.57;100.00;55585.84;4898161;29;20031;-80
2023/12/21 00:04:42;;;;;;;28.95;16.10;;;;;;;-142.57;100.00;55537.38;4895185;29;20034;-81
2023/12/21 00:07:08;;;;;;;28.67;15.93;;;;;;;-142.57;100.00;55597.97;4898297;29;20078;-81
2023/12/21 00:09:33;;;;;;;25.85;15.43;;;;;;;-142.57;100.00;55555.56;4862102;29;20043;-81
2023/12/21 00:11:59;;;;;;;31.48;16.45;;;;;;;-142.57;100.00;55555.56;4897820;29;20418;-82
2023/12/21 00:14:27;;;;;;;33.00;17.35;;;;;;;-142.57;100.00;55551.50;4895153;29;20482;-82
2023/12/21 00:16:52;;;;;;;28.13;16.88;;;;;;;-142.57;100.00;55519.19;4896549;29;20038;-82
2023/12/21 00:19:18;;;;;;;33.55;17.00;;;;;;;-142.57;100.00;55496.97;4896821;29;20125;-81
2023/12/21 00:21:43;;;;;;;29.40;17.83;;;;;;;-142.57;100.00;55503.03;4923658;28;20038;-83
2023/12/21 00:24:09;;;;;;;30.05;18.20;;;;;;;-142.57;100.00;55498.97;4936219;29;20058;-80
2023/12/21 00:26:35;;;;;;;29.27;17.65;;;;;;;-142.57;100.00;55507.06;4925605;29;20101;-82
2023/12/21 00:29:00;;;;;;;30.88;17.58;;;;;;;-142.57;100.00;55523.22;4897592;29;20035;-79
2023/12/21 00:31:26;;;;;;;32.65;17.17;;;;;;;-142.57;100.00;55559.59;4896773;29;20069;-82
2023/12/21 00:33:51;;;;;;;29.45;17.60;;;;;;;-142.57;100.00;55551.50;4899188;29;20058;-81
2023/12/21 00:36:19;;;;;;;29.02;16.48;;;;;;;-142.57;100.00;55577.78;4893146;29;20039;-81
2023/12/21 00:38:44;;;;;;;29.67;18.30;;;;;;;-142.57;100.00;55602.03;4877918;29;20117;-81
2023/12/21 00:41:10;;;;;;;30.63;16.63;;;;;;;-142.57;100.00;55644.47;4895904;29;20510;-82
2023/12/21 00:43:35;;;;;;;29.67;16.60;;;;;;;-142.57;100.00;55632.34;4895635;29;20114;-82
2023/12/21 00:46:01;;;;;;;29.95;16.15;;;;;;;-142.57;100.00;55622.22;4896660;29;20732;-83
2023/12/21 00:48:26;;;;;;;30.17;16.90;;;;;;;-142.57;100.00;55595.97;4896554;29;20080;-80
2023/12/21 00:50:52;;;;;;;29.65;16.42;;;;;;;-142.57;100.00;55591.91;4882986;29;20051;-81
2023/12/21 00:53:19;;;;;;;26.70;16.23;;;;;;;-142.57;100.00;55579.81;4893344;29;20028;-83
2023/12/21 00:55:45;;;;;;;29.52;16.52;;;;;;;-142.57;100.00;55600.00;4876104;29;20446;-82
2023/12/21 00:58:10;;;;;;;28.30;15.38;;;;;;;-142.57;100.00;55648.50;4896865;28;20047;-82
2023/12/21 01:00:36;;;;;;;27.20;15.68;;;;;;;-142.57;100.00;55622.22;4894404;28;22190;-80
2023/12/21 01:03:02;;;;;;;26.13;15.27;;;;;;;-142.57;100.00;55638.41;4880319;29;20506;-81
2023/12/21 01:05:27;;;;;;;29.48;15.50;;;;;;;-142.57;100.00;55626.28;4892326;29;20077;-84
2023/12/21 01:07:53;;;;;;;23.63;14.82;;;;;;;-142.57;100.00;55640.41;4913052;29;20023;-81
2023/12/21 01:10:18;;;;;;;23.42;14.57;;;;;;;-142.57;100.00;55628.28;4947364;29;20498;-82
2023/12/21 01:12:44;;;;;;;25.88;14.45;;;;;;;-142.57;100.00;55672.75;4948938;29;20039;-81
2023/12/21 01:15:10;;;;;;;24.00;14.40;;;;;;;-142.57;100.00;55664.66;4950812;29;20047;-83
2023/12/21 01:17:35;;;;;;;24.45;13.25;;;;;;;-142.57;100.00;55664.66;4950867;29;20032;-81
2023/12/21 01:20:01;;;;;;;28.77;14.35;;;;;;;-142.57;100.00;55697.00;4943948;28;20094;-80
2023/12/21 01:22:26;;;;;;;22.50;14.02;;;;;;;-142.57;100.00;55684.88;4945890;29;20126;-81
2023/12/21 01:24:52;;;;;;;23.80;13.50;;;;;;;-142.57;100.00;55658.59;4949741;29;20067;-80
2023/12/21 01:27:20;;;;;;;23.10;14.05;;;;;;;-142.57;100.00;55644.47;4934825;29;20066;-83
2023/12/21 01:29:46;;;;;;;19.20;13.00;;;;;;;-142.57;100.00;55648.50;4949579;28;20035;-81
2023/12/21 01:32:12;;;;;;;22.75;13.77;;;;;;;-142.57;100.00;55634.34;4896304;29;20509;-80
2023/12/21 01:34:37;;;;;;;25.60;14.50;;;;;;;-142.57;100.00;55654.56;4891189;28;20039;-82
2023/12/21 01:37:03;;;;;;;20.55;12.95;;;;;;;-142.57;100.00;55640.41;4895145;28;21904;-84
2023/12/21 01:39:29;;;;;;;20.42;12.30;;;;;;;-142.57;100.00;55692.94;4883109;29;20371;-82
2023/12/21 01:41:54;;;;;;;22.60;13.00;;;;;;;-142.57;100.00;55606.06;4941656;28;20032;-82
2023/12/21 01:44:20;;;;;;;18.02;11.27;;;;;;;-142.57;100.00;55630.31;4946891;29;20032;-83
2023/12/21 01:46:45;;;;;;;18.63;12.23;;;;;;;-142.57;100.00;55595.97;4948063;29;20486;-80
2023/12/21 01:49:12;;;;;;;20.27;12.02;;;;;;;-142.57;100.00;55628.28;4948768;29;20130;-83
2023/12/21 01:51:37;;;;;;;22.20;12.80;;;;;;;-142.57;100.00;55626.28;4932320;29;20054;-81
2023/12/21 01:54:03;;;;;;;23.35;13.48;;;;;;;-142.57;100.00;55612.13;4904312;28;20039;-82
2023/12/21 01:56:33;;;;;;;21.88;13.45;;;;;;;-142.57;100.00;55624.25;4929078;29;20046;-81
2023/12/21 01:59:01;;;;;;;25.50;14.55;;;;;;;-142.57;100.00;55593.94;4951011;29;20046;-81
2023/12/21 02:01:26;;;;;;;23.88;13.98;;;;;;;-142.57;100.00;55563.63;4946374;28;20028;-81
2023/12/21 02:03:55;;;;;;;26.83;15.20;;;;;;;-142.57;100.00;55602.03;4949129;29;20038;-81
2023/12/21 02:06:22;;;;;;;27.73;15.10;;;;;;;-142.57;100.00;55567.69;4952575;28;20122;-82
2023/12/21 02:08:47;;;;;;;25.40;15.43;;;;;;;-142.57;100.00;55595.97;4952403;29;20031;-82
2023/12/21 02:11:13;;;;;;;24.05;14.35;;;;;;;-142.57;100.00;55563.63;4933592;29;20058;-82
2023/12/21 02:13:39;;;;;;;27.80;15.88;;;;;;;-142.57;100.00;55494.94;4920030;29;20483;-82
2023/12/21 02:16:09;;;;;;;26.55;16.17;;;;;;;-142.57;100.00;55547.47;4895167;28;20035;-80
2023/12/21 02:18:35;;;;;;;30.98;16.60;;;;;;;-142.57;100.00;55531.31;4896243;29;20143;-80
2023/12/21 02:21:02;;;;;;;28.05;15.27;;;;;;;-142.57;100.00;55527.28;4890003;29;20125;-83
2023/12/21 02:23:30;;;;;;;25.98;15.05;;;;;;;-142.57;100.00;55559.59;4924209;28;20058;-81
2023/12/21 02:25:56;;;;;;;23.27;14.43;;;;;;;-142.57;100.00;55608.09;4926697;29;20032;-80
2023/12/21 02:28:21;;;;;;;23.38;14.07;;;;;;;-142.57;100.00;55575.75;4951586;28;20094;-82
2023/12/21 02:30:47;;;;;;;22.77;13.68;;;;;;;-142.57;100.00;55567.69;4952263;29;20065;-81
2023/12/21 02:33:14;;;;;;;27.38;14.60;;;;;;;-142.57;100.00;55608.09;4936239;28;20074;-83
2023/12/21 02:35:39;;;;;;;20.80;13.00;;;;;;;-142.57;100.00;55612.13;4922454;29;20062;-80
2023/12/21 02:38:05;;;;;;;21.15;12.00;;;;;;;-142.57;100.00;55579.81;4935098;29;20090;-81
2023/12/21 02:40:31;;;;;;;20.63;12.15;;;;;;;-142.57;100.00;55602.03;4894178;28;20047;-81
2023/12/21 02:42:56;;;;;;;19.25;12.90;;;;;;;-142.57;100.00;55581.81;4896011;29;20039;-81
2023/12/21 02:45:22;;;;;;;23.10;13.60;;;;;;;-142.57;100.00;55591.91;4897304;28;21557;-79
2023/12/21 02:47:47;;;;;;;20.13;11.82;;;;;;;-142.57;100.00;55575.75;4905431;29;20039;-82
2023/12/21 02:50:13;;;;;;;19.42;12.35;;;;;;;-142.57;100.00;55571.72;4949062;29;20321;-82
2023/12/21 02:52:38;;;;;;;18.65;11.40;;;;;;;-142.57;100.00;55616.16;4919125;29;20045;-81
2023/12/21 02:55:04;;;;;;;21.33;11.00;;;;;;;-142.57;100.00;55563.63;4899044;29;20407;-81
2023/12/21 02:57:29;;;;;;;18.98;10.77;;;;;;;-142.57;100.00;55537.38;4896649;29;20555;-80
2023/12/21 02:59:55;;;;;;;17.40;10.27;;;;;;;-142.57;100.00;55525.25;4898423;28;20050;-79
2023/12/21 03:02:21;;;;;;;16.42;10.45;;;;;;;-142.57;100.00;55509.09;4890299;29;20035;-82
2023/12/21 03:04:46;;;;;;;16.65;10.30;;;;;;;-142.57;100.00;55527.28;4951803;29;20035;-81
2023/12/21 03:07:12;;;;;;;17.42;10.43;;;;;;;-142.57;100.00;55501.00;4922979;29;20039;-82
2023/12/21 03:09:37;;;;;;;17.48;9.88;;;;;;;-142.57;100.00;55551.50;4953994;29;20497;-81
2023/12/21 03:12:03;;;;;;;15.60;10.20;;;;;;;-142.57;100.00;55531.31;4902064;29;20499;-82
2023/12/21 03:14:32;;;;;;;15.45;9.30;;;;;;;-142.57;100.00;55553.53;4880546;29;20035;-81
2023/12/21 03:16:58;;;;;;;14.38;9.15;;;;;;;-142.57;100.00;55521.22;4895479;29;20398;-83
2023/12/21 03:19:23;;;;;;;18.42;9.23;;;;;;;-142.57;100.00;55523.22;4900726;29;20047;-80
2023/12/21 03:21:49;;;;;;;14.63;8.75;;;;;;;-142.57;100.00;55515.16;4952165;29;20116;-80
2023/12/21 03:24:14;;;;;;;16.50;9.30;;;;;;;-142.57;100.00;55539.38;4955684;29;20071;-81
2023/12/21 03:26:41;;;;;;;15.15;8.82;;;;;;;-142.57;100.00;55587.88;4950703;29;20130;-82
2023/12/21 03:29:07;;;;;;;17.30;8.63;;;;;;;-142.57;100.00;55549.50;4962057;29;20086;-81
2023/12/21 03:31:32;;;;;;;13.18;7.88;;;;;;;-142.57;100.00;55527.28;4955656;29;20122;-80
2023/12/21 03:33:58;;;;;;;14.80;8.13;;;;;;;-142.57;100.00;55555.56;4897536;29;20402;-81
2023/12/21 03:36:23;;;;;;;10.15;6.90;;;;;;;-142.57;100.00;55559.59;4900063;29;20168;-81
2023/12/21 03:38:49;;;;;;;12.35;6.80;;;;;;;-142.57;100.00;55571.72;4900218;29;20031;-81
2023/12/21 03:41:14;;;;;;;10.48;7.40;;;;;;;-142.57;100.00;55587.88;4898911;29;20813;-81
2023/12/21 03:43:40;;;;;;;11.65;6.90;;;;;;;-142.57;100.00;55559.59;4955901;29;20035;-80
2023/12/21 03:46:09;;;;;;;10.75;6.95;;;;;;;-142.57;100.00;55606.06;4954607;29;20038;-82
2023/12/21 03:48:35;;;;;;;12.20;6.82;;;;;;;-142.57;100.00;55579.81;4947348;29;20026;-81
2023/12/21 03:51:00;;;;;;;12.93;6.28;;;;;;;-142.57;100.00;55583.84;4955215;29;20043;-81
2023/12/21 03:53:26;;;;;;;9.18;5.95;;;;;;;-142.57;100.00;55585.84;4952383;29;20115;-81
2023/12/21 03:55:52;;;;;;;13.85;5.97;;;;;;;-142.57;100.00;55585.84;4942064;28;20122;-79
2023/12/21 03:58:17;;;;;;;11.02;6.65;;;;;;;-142.57;100.00;55626.28;4895699;29;20227;-80
2023/12/21 04:00:43;;;;;;;12.63;7.18;;;;;;;-142.57;100.00;55595.97;4895480;29;20039;-81
2023/12/21 04:03:08;;;;;;;9.93;6.72;;;;;;;-142.57;100.00;55555.56;4899784;29;20035;-81
2023/12/21 04:05:34;;;;;;;10.65;6.97;;;;;;;-142.57;100.00;55575.75;4880430;29;20095;-80
2023/12/21 04:07:59;;;;;;;13.73;6.85;;;;;;;-142.57;100.00;55579.81;4899882;28;20117;-81
2023/12/21 04:10:25;;;;;;;10.88;6.13;;;;;;;-142.57;100.00;55575.75;4918979;29;20104;-84
2023/12/21 04:12:51;;;;;;;11.02;6.70;;;;;;;-142.57;100.00;55587.88;4894470;28;20035;-81
2023/12/21 04:15:20;;;;;;;9.88;6.75;;;;;;;-142.57;100.00;55587.88;4897084;29;20050;-81
2023/12/21 04:17:45;;;;;;;11.07;6.47;;;;;;;-142.57;100.00;55551.50;4900101;28;20122;-82
2023/12/21 04:20:11;;;;;;;11.43;6.10;;;;;;;-142.57;100.00;55602.03;4927119;29;20070;-81
2023/12/21 04:22:36;;;;;;;10.07;6.57;;;;;;;-142.57;100.00;55573.75;4951715;29;20073;-82
2023/12/21 04:25:02;;;;;;;12.23;7.03;;;;;;;-142.57;100.00;55541.41;4954130;29;20152;-83
2023/12/21 04:27:28;;;;;;;13.23;6.82;;;;;;;-142.57;100.00;55571.72;4948402;29;20504;-81
2023/12/21 04:29:54;;;;;;;10.00;6.10;;;;;;;-142.57;100.00;55563.63;4945832;29;20042;-81
2023/12/21 04:32:20;;;;;;;18.30;6.78;;;;;;;-142.57;100.00;55583.84;4901035;29;20035;-80
2023/12/21 04:34:45;;;;;;;10.40;6.80;;;;;;;-142.57;100.00;55535.34;4898356;29;20450;-80
2023/12/21 04:37:12;;;;;;;10.98;7.28;;;;;;;-142.57;100.00;55537.38;4902555;28;20037;-81
2023/12/21 04:39:38;;;;;;;15.88;6.80;;;;;;;-142.57;100.00;55591.91;4910989;29;20425;-84
2023/12/21 04:42:03;;;;;;;10.93;6.78;;;;;;;-142.57;100.00;55557.56;4948402;29;20049;-81
2023/12/21 04:44:29;;;;;;;12.65;6.47;;;;;;;-142.57;100.00;55517.16;4960291;28;20031;-81
2023/12/21 04:46:54;;;;;;;11.32;6.88;;;;;;;-142.57;100.00;55531.31;4909158;29;20130;-82
2023/12/21 04:49:24;;;;;;;9.35;6.35;;;;;;;-142.57;100.00;55581.81;4899262;28;20114;-83
2023/12/21 04:51:49;;;;;;;11.57;7.05;;;;;;;-142.57;100.00;55505.03;4898441;29;20510;-80
2023/12/21 04:54:15;;;;;;;11.05;6.20;;;;;;;-142.57;100.00;55543.44;4895463;28;20122;-81
2023/12/21 04:56:41;;;;;;;13.25;7.45;;;;;;;-142.57;100.00;55531.31;4899620;29;20023;-83
2023/12/21 04:59:07;;;;;;;11.80;7.38;;;;;;;-142.57;100.00;55539.38;4896664;28;20506;-81
2023/12/21 05:01:32;;;;;;;12.18;6.90;;;;;;;-142.57;100.00;55573.75;4898079;29;20359;-82
2023/12/21 05:03:59;;;;;;;11.80;6.55;;;;;;;-142.57;100.00;55587.88;4895380;29;20035;-82
2023/12/21 05:06:25;;;;;;;13.05;6.75;;;;;;;-142.57;100.00;55581.81;4891501;29;20031;-80
2023/12/21 05:08:51;;;;;;;11.82;7.53;;;;;;;-142.57;100.00;55595.97;4879555;29;20043;-82
2023/12/21 05:11:17;;;;;;;11.50;7.25;;;;;;;-142.57;100.00;55616.16;4896537;29;20069;-79
2023/12/21 05:13:43;;;;;;;11.68;7.75;;;;;;;-142.57;100.00;55616.16;4898838;29;20118;-80
2023/12/21 05:16:08;;;;;;;12.32;7.68;;;;;;;-142.57;100.00;55587.88;4895503;29;20722;-80
2023/12/21 05:18:36;;;;;;;11.18;6.82;;;;;;;-142.57;100.00;55555.56;4895114;29;20082;-82
2023/12/21 05:21:01;;;;;;;11.93;7.00;;;;;;;-142.57;100.00;55559.59;4899120;29;20122;-79
2023/12/21 05:23:27;;;;;;;12.70;7.90;;;;;;;-142.57;100.00;55517.16;4906802;29;20045;-83
2023/12/21 05:25:53;;;;;;;12.93;7.70;;;;;;;-142.57;100.00;55539.38;4928537;29;20051;-81
2023/12/21 05:28:18;;;;;;;11.32;6.72;;;;;;;-142.57;100.00;55551.50;4947580;29;20059;-80
2023/12/21 05:30:44;;;;;;;10.90;6.30;;;;;;;-142.57;100.00;55563.63;4948725;29;20054;-82
2023/12/21 05:33:09;;;;;;;12.27;6.50;;;;;;;-142.57;100.00;55575.75;4879516;29;20066;-80
2023/12/21 05:35:35;;;;;;;9.85;5.97;;;;;;;-142.57;100.00;55583.84;4913405;29;20034;-80
2023/12/21 05:38:01;;;;;;;10.02;6.28;;;;;;;-142.57;100.00;55551.50;4951146;29;20035;-77
2023/12/21 05:40:26;;;;;;;9.52;5.55;;;;;;;-142.57;100.00;55567.69;4933410;29;20047;-80
2023/12/21 05:42:52;;;;;;;8.90;5.80;;;;;;;-142.57;100.00;55587.88;4904026;29;20031;-80
2023/12/21 05:45:17;;;;;;;12.23;5.75;;;;;;;-142.57;100.00;55531.31;4899252;29;20043;-83
2023/12/21 05:47:43;;;;;;;11.18;5.95;;;;;;;-142.57;100.00;55547.47;4898960;29;20126;-82
2023/12/21 05:50:09;;;;;;;11.75;6.22;;;;;;;-142.57;100.00;55569.69;4898848;29;20719;-81
2023/12/21 05:52:35;;;;;;;11.57;6.40;;;;;;;-142.57;100.00;55608.09;4926391;29;20031;-81
2023/12/21 05:55:01;;;;;;;11.95;6.95;;;;;;;-142.57;100.00;55563.63;4941636;29;20162;-81
2023/12/21 05:57:26;;;;;;;8.65;5.47;;;;;;;-142.57;100.00;55563.63;4954133;29;20451;-81
2023/12/21 05:59:52;;;;;;;11.98;6.47;;;;;;;-142.57;100.00;55614.16;4952700;29;20435;-84
2023/12/21 06:02:18;;;;;;;14.57;6.35;;;;;;;-142.57;100.00;55565.66;4933295;29;20039;-83
2023/12/21 06:04:43;;;;;;;16.45;6.43;;;;;;;-142.57;100.00;55591.91;4944537;29;20074;-85
2023/12/21 06:07:08;;;;;;;13.27;6.90;;;;;;;-142.57;100.00;55579.81;4934796;29;20042;-83
2023/12/21 06:09:34;;;;;;;20.90;6.70;;;;;;;-142.57;100.00;55595.97;4864199;28;20047;-83
2023/12/21 06:12:00;;;;;;;18.25;6.72;;;;;;;-142.57;100.00;55595.97;4880984;29;20039;-84
2023/12/21 06:14:25;;;;;;;15.93;7.95;;;;;;;-142.57;100.00;55616.16;4883631;29;20051;-84
2023/12/21 06:16:51;;;;;;;15.48;6.85;;;;;;;-142.57;100.00;55600.00;4883678;29;20039;-83
2023/12/21 06:19:16;;;;;;;15.77;7.28;;;;;;;-142.57;100.00;55600.00;4929420;28;20045;-84
2023/12/21 06:21:42;;;;;;;15.50;7.43;;;;;;;-142.57;100.00;55555.56;4952126;28;20051;-85
2023/12/21 06:24:08;;;;;;;12.25;7.50;;;;;;;-142.57;100.00;55486.84;4949673;28;20043;-86
2023/12/21 06:26:39;;;;;;;18.05;7.60;;;;;;;-142.57;100.00;55513.13;4951236;28;20412;-84
2023/12/21 06:29:04;;;;;;;12.00;7.47;;;;;;;-142.57;100.00;55482.81;4900099;29;20059;-85
2023/12/21 06:31:30;;;;;;;15.32;6.68;;;;;;;-142.57;100.00;55507.06;4904950;28;21790;-84
2023/12/21 06:33:56;;;;;;;20.88;7.90;;;;;;;-142.57;100.00;55468.69;4900627;28;20031;-82
2023/12/21 06:36:22;;;;;;;13.85;8.40;;;;;;;-142.57;100.00;55440.38;4904025;28;20115;-83
2023/12/21 06:38:48;;;;;;;19.75;11.35;;;;;;;-142.57;100.00;55470.69;4941058;28;20122;-85
2023/12/21 06:41:14;;;;;;;20.58;11.20;;;;;;;-142.57;100.00;55436.34;4902705;29;21507;-82
2023/12/21 06:43:39;;;;;;;20.63;10.52;;;;;;;-142.57;100.00;55450.50;4932456;29;20080;-80
2023/12/21 06:46:12;;;;;;;21.45;11.13;;;;;;;-142.57;100.00;55454.53;4951768;28;20047;-84
2023/12/21 06:48:38;;;;;;;21.08;9.52;;;;;;;-142.57;100.00;55494.94;4945642;28;20521;-82
2023/12/21 06:51:04;;;;;;;21.83;10.23;;;;;;;-142.57;100.00;55480.78;4943359;28;20035;-81
2023/12/21 06:53:29;;;;;;;21.90;9.90;;;;;;;-142.57;100.00;55490.91;4941621;29;20119;-81
2023/12/21 06:55:55;;;;;;;30.05;9.65;;;;;;;-142.57;100.00;55531.31;4948669;29;20050;-83
2023/12/21 06:58:20;;;;;;;105.03;16.00;;;;;;;-142.57;100.00;55567.69;4951239;28;20035;-86
2023/12/21 07:00:47;;;;;;;240.00;21.20;;;;;;;-142.57;100.00;55595.97;4925769;29;20615;-85
2023/12/21 07:03:13;;;;;;;215.35;17.83;;;;;;;-142.57;100.00;55640.41;4945867;29;20114;-84
2023/12/21 07:05:38;;;;;;;56.15;10.93;;;;;;;-142.57;100.00;55597.97;4939056;28;20119;-84
2023/12/21 07:08:04;;;;;;;221.73;16.13;;;;;;;-142.57;100.00;55630.31;4923529;28;20087;-80
2023/12/21 07:10:32;;;;;;;193.57;16.85;;;;;;;-142.57;100.00;55648.50;4952575;29;20142;-84
2023/12/21 07:12:58;;;;;;;182.52;16.73;;;;;;;-142.57;100.00;55688.91;4914697;29;20055;-82
2023/12/21 07:15:23;;;;;;;193.45;18.52;;;;;;;-142.57;100.00;55745.47;4934894;28;21535;-79
2023/12/21 07:17:49;;;;;;;73.05;11.80;;;;;;;-142.57;100.00;55731.34;4946475;28;20023;-82
2023/12/21 07:20:15;;;;;;;49.67;10.25;;;;;;;-142.57;100.00;55668.69;4929355;29;20039;-82
2023/12/21 07:22:40;;;;;;;85.18;14.05;;;;;;;-142.57;100.00;55699.00;4941387;28;20073;-80
2023/12/21 07:25:06;;;;;;;68.95;13.23;;;;;;;-142.57;100.00;55737.41;4944897;28;20039;-82
2023/12/21 07:27:32;;;;;;;107.25;15.75;;;;;;;-142.57;100.00;55767.72;4949743;29;20090;-84
2023/12/21 07:29:59;;;;;;;97.72;12.15;;;;;;;-142.57;100.00;55765.69;4956136;29;20094;-81
2023/12/21 07:32:25;;;;;;;40.22;10.98;;;;;;;-142.57;100.00;55844.50;4937397;29;20031;-83
2023/12/21 07:34:50;;;;;;;54.25;11.02;;;;;;;-142.57;100.00;55872.78;4937489;29;20037;-81
2023/12/21 07:37:16;;;;;;;116.50;14.00;;;;;;;-142.57;100.00;55939.47;4955759;29;20039;-83
2023/12/21 07:39:43;;;;;;;127.82;13.10;;;;;;;-142.57;100.00;55963.72;4956445;29;20379;-82
2023/12/21 07:42:08;;;;;;;66.13;11.95;;;;;;;-142.57;100.00;55963.72;4952476;29;20148;-83
2023/12/21 07:44:35;;;;;;;62.45;12.45;;;;;;;-142.57;100.00;55937.44;4938938;29;20118;-81
2023/12/21 07:47:02;;;;;;;39.75;11.02;;;;;;;-142.57;100.00;55963.72;4955630;29;20039;-84
2023/12/21 07:49:28;;;;;;;93.68;16.35;;;;;;;-142.57;100.00;55895.00;4937968;29;20043;-82
2023/12/21 07:51:53;;;;;;;121.45;18.90;;;;;;;-142.57;100.00;56004.13;4955802;29;20036;-80
2023/12/21 07:54:19;;;;;;;138.95;16.85;;;;;;;-142.57;100.00;56040.50;4955221;29;20056;-83
2023/12/21 07:56:48;;;;;;;141.10;18.02;;;;;;;-142.57;100.00;56004.13;4955572;29;20407;-81
2023/12/21 07:59:14;;;;;;;204.95;20.83;;;;;;;-142.57;100.00;56016.25;4955828;29;20078;-80
2023/12/21 08:01:40;;;;;;;230.82;21.08;;;;;;;-142.57;100.00;56036.44;4955580;29;20063;-80
2023/12/21 08:04:07;;;;;;;159.20;17.13;;;;;;;-142.57;100.00;55907.13;4952232;29;20494;-80
2023/12/21 08:06:34;;;;;;;170.30;17.15;;;;;;;-142.57;100.00;55866.72;4938115;29;20431;-81
2023/12/21 08:09:01;;;;;;;148.35;17.08;;;;;;;-142.57;100.00;55828.31;4955730;29;20035;-80
2023/12/21 08:11:26;;;;;;;31.33;10.48;;;;;;;-142.57;100.00;55785.91;4957665;29;20035;-83
2023/12/21 08:13:52;;;;;;;24.02;9.93;;;;;;;-142.57;100.00;55800.03;4941159;29;20063;-82
2023/12/21 08:16:18;;;;;;;98.80;13.43;;;;;;;-142.57;100.00;55765.69;4958755;29;20051;-81
2023/12/21 08:18:46;;;;;;;37.63;11.75;;;;;;;-142.57;100.00;55765.69;4936647;29;20032;-83
2023/12/21 08:21:11;;;;;;;113.35;16.65;;;;;;;-142.57;100.00;55765.69;4951978;29;20031;-83
2023/12/21 08:23:37;;;;;;;206.40;19.15;;;;;;;-142.57;100.00;55810.13;4956085;29;20376;-81
2023/12/21 08:26:03;;;;;;;52.67;12.80;;;;;;;-142.57;100.00;55781.84;4936419;29;20063;-80
2023/12/21 08:28:30;;;;;;;139.35;17.30;;;;;;;-142.57;100.00;55743.47;4955282;29;20447;-83
2023/12/21 08:30:56;;;;;;;173.10;16.60;;;;;;;-142.57;100.00;55767.72;4937641;29;20074;-82
2023/12/21 08:33:22;;;;;;;187.45;18.48;;;;;;;-142.57;100.00;55781.84;4937826;29;20146;-82
2023/12/21 08:35:48;;;;;;;135.23;16.95;;;;;;;-142.57;100.00;55789.94;4901255;29;20491;-83
2023/12/21 08:38:13;;;;;;;29.10;10.98;;;;;;;-142.57;100.00;55737.41;4923367;29;20035;-82
2023/12/21 08:40:39;;;;;;;60.25;13.25;;;;;;;-142.57;100.00;55749.53;4898593;29;20035;-84
2023/12/21 08:43:04;;;;;;;28.63;9.38;;;;;;;-142.57;100.00;55753.56;4876993;29;20046;-83
2023/12/21 08:45:32;;;;;;;38.67;9.85;;;;;;;-142.57;100.00;55749.53;4896606;29;20089;-85
2023/12/21 08:47:58;;;;;;;31.45;10.30;;;;;;;-142.57;100.00;55781.84;4893835;29;20395;-87
2023/12/21 08:50:23;;;;;;;47.47;10.15;;;;;;;-142.57;100.00;55834.38;4893833;29;20031;-82
2023/12/21 08:52:49;;;;;;;30.35;9.45;;;;;;;-142.57;100.00;55882.88;4876695;29;20050;-84
2023/12/21 08:55:14;;;;;;;19.73;9.65;;;;;;;-142.57;100.00;55882.88;4890977;29;20126;-81
2023/12/21 08:57:40;;;;;;;21.25;11.02;;;;;;;-142.57;100.00;55832.38;4895300;29;20039;-81
2023/12/21 09:00:13;;;;;;;22.23;10.70;;;;;;;-142.57;100.00;55852.56;4880372;29;22007;-80
2023/12/21 09:02:39;;;;;;;21.95;10.52;;;;;;;-142.57;100.00;55844.50;4878685;29;20047;-82
2023/12/21 09:05:06;;;;;;;21.63;9.50;;;;;;;-142.57;100.00;55836.41;4895741;29;20174;-84
2023/12/21 09:07:31;;;;;;;22.17;9.85;;;;;;;-142.57;100.00;55826.31;4896275;29;20133;-83
2023/12/21 09:09:58;;;;;;;24.27;11.98;;;;;;;-142.57;100.00;55810.13;4895636;29;20568;-81
2023/12/21 09:12:26;;;;;;;21.88;10.82;;;;;;;-142.57;100.00;55842.47;4876407;29;20635;-81
2023/12/21 09:14:52;;;;;;;21.70;10.85;;;;;;;-142.57;100.00;55832.38;4896647;29;20059;-81
2023/12/21 09:17:18;;;;;;;25.83;11.98;;;;;;;-142.57;100.00;55836.41;4894304;29;20043;-82
2023/12/21 09:19:45;;;;;;;39.00;13.90;;;;;;;-142.57;100.00;55802.06;4920865;29;20125;-82
2023/12/21 09:22:10;;;;;;;22.85;10.88;;;;;;;-142.57;100.00;55814.19;4916532;29;20122;-83
2023/12/21 09:24:38;;;;;;;17.75;10.50;;;;;;;-142.57;100.00;55820.25;4893798;29;20047;-84
2023/12/21 09:27:04;;;;;;;18.27;10.32;;;;;;;-142.57;100.00;55838.44;4895195;29;20054;-82
2023/12/21 09:29:30;;;;;;;25.95;11.68;;;;;;;-142.57;100.00;55785.91;4899013;29;20050;-81
2023/12/21 09:31:56;;;;;;;18.52;10.20;;;;;;;-142.57;100.00;55781.84;4893260;29;20066;-81
2023/12/21 09:34:21;;;;;;;18.90;10.82;;;;;;;-142.57;100.00;55802.06;4880548;29;20070;-82
2023/12/21 09:36:47;;;;;;;32.30;11.90;;;;;;;-142.57;100.00;55753.56;4878476;29;20085;-83
2023/12/21 09:39:12;;;;;;;89.07;13.90;;;;;;;-142.57;100.00;55787.91;4876275;29;20137;-85
2023/12/21 09:41:39;;;;;;;113.05;16.30;;;;;;;-142.57;100.00;55826.31;4897130;29;20451;-84
2023/12/21 09:44:05;;;;;;;128.57;18.95;;;;;;;-142.57;100.00;55826.31;4899682;29;20089;-86
2023/12/21 09:46:38;;;;;;;61.20;15.10;;;;;;;-142.57;100.00;55862.69;4888572;29;20188;-85
2023/12/21 09:49:06;;;;;;;28.27;12.73;;;;;;;-142.57;100.00;55854.59;4893465;29;20043;-86
2023/12/21 09:51:34;;;;;;;118.40;18.00;;;;;;;-142.57;100.00;55901.06;4914572;29;20089;-83
2023/12/21 09:54:02;;;;;;;83.50;16.55;;;;;;;-142.57;100.00;55985.94;4933634;29;20427;-83
2023/12/21 09:56:28;;;;;;;35.58;14.38;;;;;;;-142.57;100.00;55994.00;4937988;29;20031;-83
2023/12/21 09:58:56;;;;;;;53.83;15.32;;;;;;;-142.57;100.00;56046.56;4919932;29;20035;-84
2023/12/21 10:01:22;;;;;;;68.40;16.70;;;;;;;-142.57;100.00;56018.25;4940114;29;20054;-83
2023/12/21 10:03:47;;;;;;;25.17;13.77;;;;;;;-142.57;100.00;56048.56;4954644;29;20065;-83
2023/12/21 10:06:13;;;;;;;39.47;13.60;;;;;;;-142.57;100.00;56072.81;4954256;29;20055;-86
2023/12/21 10:08:40;;;;;;;35.65;14.93;;;;;;;-142.57;100.00;56016.25;4954258;29;20061;-83
2023/12/21 10:11:08;;;;;;;28.83;14.77;;;;;;;-142.57;100.00;55957.66;4953883;29;20035;-81
2023/12/21 10:13:35;;;;;;;25.40;13.77;;;;;;;-142.57;100.00;55953.59;4936758;29;20062;-84
2023/12/21 10:16:03;;;;;;;27.77;13.85;;;;;;;-142.57;100.00;55929.34;4954000;29;20042;-79
2023/12/21 10:18:30;;;;;;;24.75;13.95;;;;;;;-142.57;100.00;55989.97;4954438;29;20039;-80
2023/12/21 10:20:56;;;;;;;32.13;15.55;;;;;;;-142.57;100.00;55969.78;4953838;29;20043;-84
2023/12/21 10:23:22;;;;;;;32.72;13.80;;;;;;;-142.57;100.00;56048.56;4950496;29;20470;-80
2023/12/21 10:25:48;;;;;;;36.53;15.40;;;;;;;-142.57;100.00;56044.53;4951720;29;20042;-82
2023/12/21 10:28:14;;;;;;;38.97;14.85;;;;;;;-142.57;100.00;56048.56;4950032;29;20118;-81
2023/12/21 10:30:40;;;;;;;24.90;13.98;;;;;;;-142.57;100.00;56016.25;4952522;29;20131;-80
2023/12/21 10:33:08;;;;;;;25.58;12.95;;;;;;;-142.57;100.00;56040.50;4952793;29;20114;-80
2023/12/21 10:35:35;;;;;;;31.48;11.40;;;;;;;-142.57;100.00;56048.56;4948638;29;20054;-81
2023/12/21 10:38:02;;;;;;;17.15;11.15;;;;;;;-142.57;100.00;56008.16;4953029;29;20467;-80
2023/12/21 10:40:28;;;;;;;18.05;10.75;;;;;;;-142.57;100.00;55973.81;4953045;29;20098;-82
2023/12/21 10:42:56;;;;;;;21.52;11.05;;;;;;;-142.57;100.00;56012.19;4953382;29;20039;-82
2023/12/21 10:45:22;;;;;;;16.30;10.95;;;;;;;-142.57;100.00;56002.09;4948902;29;20031;-82
2023/12/21 10:47:55;;;;;;;21.88;11.88;;;;;;;-142.57;100.00;55979.88;4934110;29;20469;-82
2023/12/21 10:50:21;;;;;;;30.65;12.73;;;;;;;-142.57;100.00;56062.72;4949083;29;20047;-82
2023/12/21 10:52:48;;;;;;;21.33;11.85;;;;;;;-142.57;100.00;56076.88;4952921;29;20383;-82